Time;durP1;ratioP1;P1;durP2;ratioP2;P2;SDS_P1;SDS_P2;PMS_P1;PMS_P2;Temp;Humidity;BMP_temperature;BMP_pressure;BME280_temperature;BME280_humidity;BME280_pressure;Samples;Min_cycle;Max_cycle;Signal;HPM_P1;HPM_P2
2021/08/25 00:02:14;;;;;;;3.53;0.85;;;12.50;99.90;;;;;;4966659;29;20095;-88
2021/08/25 00:04:41;;;;;;;3.53;0.88;;;12.40;99.90;;;;;;4966655;29;20035;-88
2021/08/25 00:07:07;;;;;;;2.83;1.10;;;12.30;99.90;;;;;;4966769;29;20034;-88
2021/08/25 00:09:34;;;;;;;2.50;0.90;;;12.30;99.90;;;;;;4950443;29;20039;-88
2021/08/25 00:12:00;;;;;;;2.10;0.70;;;12.30;99.90;;;;;;4954162;29;20035;-88
2021/08/25 00:14:26;;;;;;;3.25;0.90;;;12.30;99.90;;;;;;4954534;29;20043;-88
2021/08/25 00:16:51;;;;;;;3.83;1.00;;;12.30;99.90;;;;;;4945795;29;20016;-88
2021/08/25 00:19:17;;;;;;;5.57;0.95;;;12.30;99.90;;;;;;4932166;29;20036;-87
2021/08/25 00:21:42;;;;;;;4.53;1.08;;;12.20;99.90;;;;;;4932358;29;20056;-88
2021/08/25 00:24:08;;;;;;;3.03;1.00;;;12.20;99.90;;;;;;4932225;29;20056;-88
2021/08/25 00:26:34;;;;;;;2.55;0.90;;;12.20;99.90;;;;;;4932133;29;20032;-88
2021/08/25 00:28:59;;;;;;;4.18;1.08;;;12.30;99.90;;;;;;4931886;29;20103;-88
2021/08/25 00:31:25;;;;;;;3.10;0.80;;;12.20;99.90;;;;;;4932155;29;20036;-88
2021/08/25 00:33:50;;;;;;;3.72;0.90;;;12.20;99.90;;;;;;4931897;29;20063;-88
2021/08/25 00:36:16;;;;;;;4.30;1.10;;;12.30;99.90;;;;;;4916351;29;20040;-88
2021/08/25 00:38:41;;;;;;;2.70;0.88;;;12.20;99.90;;;;;;4931844;29;20033;-88
2021/08/25 00:41:07;;;;;;;2.80;1.00;;;12.20;99.90;;;;;;4931998;29;20036;-88
2021/08/25 00:43:32;;;;;;;3.78;1.00;;;12.20;99.90;;;;;;4931778;29;20048;-88
2021/08/25 00:45:58;;;;;;;2.30;0.70;;;12.20;99.90;;;;;;4931800;29;20036;-88
2021/08/25 00:48:24;;;;;;;3.70;0.90;;;12.20;99.90;;;;;;4928204;29;20081;-88
2021/08/25 00:50:50;;;;;;;2.90;0.90;;;12.20;99.90;;;;;;4928364;29;20039;-88
2021/08/25 00:53:16;;;;;;;4.47;0.90;;;12.20;99.90;;;;;;4928234;29;20048;-88
2021/08/25 00:55:42;;;;;;;4.85;1.58;;;12.20;99.90;;;;;;4912618;29;20123;-89
2021/08/25 00:58:09;;;;;;;3.75;1.27;;;12.20;99.90;;;;;;4934623;29;20035;-88
2021/08/25 01:00:46;;;;;;;4.82;1.50;;;12.20;99.90;;;;;;4934623;29;20044;-88
2021/08/25 01:03:26;;;;;;;4.72;1.13;;;12.10;99.90;;;;;;4966190;29;20031;-87
2021/08/25 01:05:54;;;;;;;3.90;1.20;;;12.10;99.90;;;;;;4966361;29;20043;-88
2021/08/25 01:08:20;;;;;;;3.33;1.30;;;12.10;99.90;;;;;;4950046;29;20122;-88
2021/08/25 01:10:45;;;;;;;4.50;1.35;;;12.10;99.90;;;;;;4934397;29;20067;-88
2021/08/25 01:13:12;;;;;;;3.45;1.38;;;12.10;99.90;;;;;;4934430;29;20074;-88
2021/08/25 01:15:40;;;;;;;3.53;1.27;;;12.20;99.90;;;;;;4934253;29;20094;-87
2021/08/25 01:18:11;;;;;;;3.75;1.42;;;12.10;99.90;;;;;;4919071;29;20441;-88
2021/08/25 01:20:39;;;;;;;3.90;1.33;;;12.10;99.90;;;;;;4930869;29;20036;-88
2021/08/25 01:23:05;;;;;;;2.67;1.00;;;12.10;99.90;;;;;;4930263;29;20032;-88
2021/08/25 01:25:33;;;;;;;3.38;0.95;;;12.10;99.90;;;;;;4946993;29;20035;-88
2021/08/25 01:28:01;;;;;;;3.50;1.35;;;12.00;99.90;;;;;;4915044;29;20043;-89
2021/08/25 01:30:29;;;;;;;4.05;1.15;;;12.10;99.90;;;;;;4915127;29;20036;-88
2021/08/25 01:32:59;;;;;;;5.70;1.95;;;12.00;99.90;;;;;;4915057;29;20032;-88
2021/08/25 01:35:38;;;;;;;3.40;1.33;;;12.00;99.90;;;;;;4914922;29;20044;-88
2021/08/25 01:38:05;;;;;;;4.13;1.50;;;12.00;99.90;;;;;;4915100;29;20290;-88
2021/08/25 01:40:32;;;;;;;3.35;1.40;;;11.90;99.90;;;;;;4914863;29;20036;-88
2021/08/25 01:42:59;;;;;;;4.60;1.35;;;11.90;99.90;;;;;;4915089;29;20092;-88
2021/08/25 01:45:26;;;;;;;5.38;2.08;;;11.90;99.90;;;;;;4914765;29;20515;-88
2021/08/25 01:47:52;;;;;;;5.78;2.00;;;11.90;99.90;;;;;;4918235;29;20139;-88
2021/08/25 01:50:17;;;;;;;4.65;1.42;;;11.90;99.90;;;;;;4946004;29;20028;-87
2021/08/25 01:52:43;;;;;;;5.80;2.38;;;11.90;99.90;;;;;;4946395;29;20036;-87
2021/08/25 01:55:08;;;;;;;4.47;1.85;;;11.90;99.90;;;;;;4946088;29;20076;-87
2021/08/25 01:57:34;;;;;;;3.53;1.45;;;11.90;99.90;;;;;;4946202;29;20039;-88
2021/08/25 02:00:01;;;;;;;5.22;2.38;;;11.80;99.90;;;;;;4946164;29;20032;-87
2021/08/25 02:02:26;;;;;;;3.28;1.27;;;11.80;99.90;;;;;;4946335;29;20056;-87
2021/08/25 02:04:56;;;;;;;3.70;1.60;;;11.80;99.90;;;;;;4945549;29;20040;-87
2021/08/25 02:07:21;;;;;;;4.35;2.17;;;11.80;99.90;;;;;;4946091;29;20127;-87
2021/08/25 02:09:47;;;;;;;7.30;2.10;;;11.70;99.90;;;;;;4945855;29;20115;-88
2021/08/25 02:12:13;;;;;;;3.78;1.52;;;11.70;99.90;;;;;;4946253;29;20036;-87
2021/08/25 02:14:38;;;;;;;3.83;1.70;;;11.70;99.90;;;;;;4945692;29;20040;-87
2021/08/25 02:17:06;;;;;;;4.80;1.23;;;11.70;99.90;;;;;;4945702;29;20024;-87
2021/08/25 02:19:33;;;;;;;3.92;1.95;;;11.70;99.90;;;;;;4929780;29;20036;-88
2021/08/25 02:21:59;;;;;;;3.80;1.60;;;11.60;99.90;;;;;;4929752;29;20032;-87
2021/08/25 02:24:25;;;;;;;7.00;2.30;;;11.70;99.90;;;;;;4929877;29;20061;-87
2021/08/25 02:26:50;;;;;;;4.43;2.13;;;11.70;99.90;;;;;;4945775;29;20028;-88
2021/08/25 02:29:16;;;;;;;4.30;1.92;;;11.70;99.90;;;;;;4945374;29;20063;-87
2021/08/25 02:31:42;;;;;;;6.55;2.08;;;11.70;99.90;;;;;;4946004;29;20032;-88
2021/08/25 02:34:08;;;;;;;5.47;1.80;;;11.70;99.90;;;;;;4929752;29;20102;-87
2021/08/25 02:36:34;;;;;;;4.03;1.83;;;11.60;99.90;;;;;;4945757;29;20492;-88
2021/08/25 02:38:59;;;;;;;5.28;2.67;;;11.60;99.90;;;;;;4929571;29;20032;-88
2021/08/25 02:41:25;;;;;;;4.97;1.92;;;11.50;99.90;;;;;;4929488;29;20078;-87
2021/08/25 02:43:51;;;;;;;3.88;1.58;;;11.50;99.90;;;;;;4929563;29;20028;-88
2021/08/25 02:46:37;;;;;;;5.50;1.90;;;11.50;99.90;;;;;;4944984;29;20088;-87
2021/08/25 02:49:03;;;;;;;5.03;2.33;;;11.40;99.90;;;;;;4893697;29;20048;-87
2021/08/25 02:51:29;;;;;;;6.88;2.88;;;11.50;99.90;;;;;;4909463;29;20063;-87
2021/08/25 02:53:55;;;;;;;4.03;1.98;;;11.40;99.90;;;;;;4909290;29;20040;-87
2021/08/25 02:56:21;;;;;;;4.38;2.08;;;11.30;99.90;;;;;;4914294;29;20067;-86
2021/08/25 02:58:46;;;;;;;4.07;1.85;;;11.30;99.90;;;;;;4928271;29;20032;-88
2021/08/25 03:01:13;;;;;;;4.40;1.75;;;11.20;99.90;;;;;;4912399;29;20047;-87
2021/08/25 03:03:39;;;;;;;4.65;2.10;;;11.30;99.90;;;;;;4912470;29;20032;-87
2021/08/25 03:06:04;;;;;;;3.95;1.70;;;11.30;99.90;;;;;;4912191;29;20059;-87
2021/08/25 03:08:30;;;;;;;3.30;1.25;;;11.20;99.90;;;;;;4912098;29;20032;-88
2021/08/25 03:10:55;;;;;;;5.63;1.60;;;11.20;99.90;;;;;;4912526;29;20444;-87
2021/08/25 03:13:21;;;;;;;4.72;1.80;;;11.30;99.90;;;;;;4912243;29;20054;-87
2021/08/25 03:15:46;;;;;;;4.15;1.75;;;11.20;99.90;;;;;;4927931;29;20072;-88
2021/08/25 03:18:12;;;;;;;4.88;2.15;;;11.10;99.90;;;;;;4896230;29;20052;-88
2021/08/25 03:20:38;;;;;;;3.97;1.70;;;11.10;99.90;;;;;;4908941;29;20045;-87
2021/08/25 03:23:03;;;;;;;5.50;1.90;;;11.10;99.90;;;;;;4909226;29;20056;-88
2021/08/25 03:25:29;;;;;;;5.38;2.50;;;11.10;99.90;;;;;;4906227;29;20478;-88
2021/08/25 03:27:54;;;;;;;5.13;2.20;;;11.10;99.90;;;;;;4907007;29;20108;-87
2021/08/25 03:30:20;;;;;;;6.78;1.95;;;11.10;99.90;;;;;;4906746;29;20084;-88
2021/08/25 03:32:46;;;;;;;3.67;1.92;;;11.10;99.90;;;;;;4891322;29;20092;-87
2021/08/25 03:35:12;;;;;;;3.78;2.05;;;11.20;99.90;;;;;;4906782;29;20052;-88
2021/08/25 03:37:38;;;;;;;3.75;1.98;;;11.10;99.90;;;;;;4891060;29;20052;-88
2021/08/25 03:40:06;;;;;;;5.05;2.13;;;11.10;99.90;;;;;;4906659;29;20060;-88
2021/08/25 03:42:32;;;;;;;5.50;2.15;;;11.10;99.90;;;;;;4891046;29;20052;-89
2021/08/25 03:44:57;;;;;;;4.65;2.22;;;11.10;99.90;;;;;;4906151;29;20060;-88
2021/08/25 03:47:23;;;;;;;4.82;2.10;;;11.10;99.90;;;;;;4906151;29;20128;-88
2021/08/25 03:49:49;;;;;;;3.45;1.73;;;11.10;99.90;;;;;;4890943;29;20048;-88
2021/08/25 03:52:14;;;;;;;5.43;2.67;;;11.00;99.90;;;;;;4875319;29;20107;-88
2021/08/25 03:54:40;;;;;;;4.07;2.33;;;11.10;99.90;;;;;;4890777;29;20041;-89
2021/08/25 03:57:06;;;;;;;3.63;2.17;;;11.10;99.90;;;;;;4912389;29;20042;-89
2021/08/25 03:59:31;;;;;;;6.25;2.90;;;11.00;99.90;;;;;;4928319;29;20131;-88
2021/08/25 04:01:57;;;;;;;6.35;2.40;;;11.00;99.90;;;;;;4928497;29;20039;-88
2021/08/25 04:04:22;;;;;;;5.05;2.47;;;10.90;99.90;;;;;;4928364;29;20043;-88
2021/08/25 04:06:48;;;;;;;7.38;2.30;;;11.00;99.90;;;;;;4928342;29;20050;-89
2021/08/25 04:09:13;;;;;;;5.82;2.75;;;10.90;99.90;;;;;;4928166;29;20032;-88
2021/08/25 04:11:39;;;;;;;5.13;2.83;;;10.90;99.90;;;;;;4928314;29;20032;-88
2021/08/25 04:14:05;;;;;;;7.15;3.00;;;10.90;99.90;;;;;;4928302;29;20112;-88
2021/08/25 04:16:31;;;;;;;5.15;2.78;;;10.80;99.90;;;;;;4941306;29;20781;-88
2021/08/25 04:18:56;;;;;;;6.00;3.13;;;10.70;99.90;;;;;;4909273;29;20075;-89
2021/08/25 04:21:23;;;;;;;3.97;2.55;;;10.70;99.90;;;;;;4909446;29;20028;-89
2021/08/25 04:23:49;;;;;;;7.78;2.55;;;10.70;99.90;;;;;;4893783;29;20043;-89
2021/08/25 04:26:15;;;;;;;5.25;2.70;;;10.70;99.90;;;;;;4924602;29;20091;-89
2021/08/25 04:28:40;;;;;;;6.15;3.00;;;10.70;99.90;;;;;;4908362;29;20033;-89
2021/08/25 04:31:07;;;;;;;5.30;2.72;;;10.60;99.90;;;;;;4940207;29;20040;-89
2021/08/25 04:33:33;;;;;;;5.43;2.83;;;10.60;99.90;;;;;;4909106;29;20028;-89
2021/08/25 04:35:58;;;;;;;6.90;3.60;;;10.60;99.90;;;;;;4924769;29;20051;-89
2021/08/25 04:38:25;;;;;;;3.95;2.40;;;10.60;99.90;;;;;;4908649;29;20460;-89
2021/08/25 04:40:50;;;;;;;7.60;3.67;;;10.50;99.90;;;;;;4909344;29;20040;-89
2021/08/25 04:43:16;;;;;;;7.57;2.65;;;10.60;99.90;;;;;;4909179;29;20119;-89
2021/08/25 04:45:41;;;;;;;6.95;3.03;;;10.50;99.90;;;;;;4909133;29;20040;-90
2021/08/25 04:48:07;;;;;;;4.60;2.63;;;10.50;99.90;;;;;;4926539;29;20036;-90
2021/08/25 04:50:33;;;;;;;5.75;3.70;;;10.50;99.90;;;;;;4947061;29;20032;-89
2021/08/25 04:52:59;;;;;;;4.95;3.30;;;10.50;99.90;;;;;;4946784;29;20071;-88
2021/08/25 04:55:24;;;;;;;8.52;3.08;;;10.50;99.90;;;;;;4930115;29;20043;-88
2021/08/25 04:57:50;;;;;;;4.72;3.13;;;10.50;99.90;;;;;;4964506;28;20032;-87
2021/08/25 05:00:16;;;;;;;5.97;2.83;;;10.50;99.90;;;;;;4953153;29;20090;-87
2021/08/25 05:02:42;;;;;;;5.43;3.38;;;10.50;99.90;;;;;;4968976;29;20028;-89
2021/08/25 05:05:08;;;;;;;5.22;3.55;;;10.50;99.90;;;;;;4953119;29;20075;-88
2021/08/25 05:07:33;;;;;;;5.47;2.88;;;10.60;99.90;;;;;;4938959;29;20051;-88
2021/08/25 05:09:59;;;;;;;5.68;3.22;;;10.60;99.90;;;;;;4946560;29;20035;-88
2021/08/25 05:12:25;;;;;;;5.65;3.00;;;10.60;99.90;;;;;;4933556;29;20559;-87
2021/08/25 05:14:50;;;;;;;7.50;2.78;;;10.60;99.90;;;;;;4948369;29;20044;-88
2021/08/25 05:17:16;;;;;;;8.38;3.38;;;10.60;99.90;;;;;;4946047;29;20043;-88
2021/08/25 05:19:41;;;;;;;4.78;3.65;;;10.70;99.90;;;;;;4930015;29;20064;-87
2021/08/25 05:22:09;;;;;;;5.63;3.45;;;10.80;99.90;;;;;;4930382;29;20055;-88
2021/08/25 05:24:36;;;;;;;6.22;3.45;;;10.90;99.90;;;;;;4930533;29;20032;-88
2021/08/25 05:27:02;;;;;;;6.78;3.53;;;10.90;99.90;;;;;;4930230;29;20042;-87
2021/08/25 05:29:27;;;;;;;5.50;3.47;;;10.90;99.90;;;;;;4930254;29;20060;-87
2021/08/25 05:31:53;;;;;;;5.25;3.28;;;11.00;99.90;;;;;;4930362;29;20036;-87
2021/08/25 05:34:18;;;;;;;5.70;3.38;;;11.10;99.90;;;;;;4930767;29;20044;-86
2021/08/25 05:36:44;;;;;;;5.50;3.70;;;11.20;99.90;;;;;;4931457;29;20163;-87
2021/08/25 05:39:10;;;;;;;6.70;4.15;;;11.30;99.90;;;;;;4931496;29;20024;-87
2021/08/25 05:41:36;;;;;;;5.63;3.55;;;11.30;99.90;;;;;;4930355;29;20145;-87
2021/08/25 05:44:04;;;;;;;5.72;3.83;;;11.50;99.90;;;;;;4930104;29;20052;-87
2021/08/25 05:50:18;;;;;;;4.93;3.75;;;11.60;99.90;;;;;;4863216;29;20133;-87
2021/08/25 05:52:43;;;;;;;4.88;4.22;;;11.70;99.90;;;;;;4856894;29;20037;-87
2021/08/25 05:55:10;;;;;;;6.07;4.15;;;11.80;99.90;;;;;;4872194;29;20148;-87
2021/08/25 05:57:35;;;;;;;7.93;5.00;;;11.90;99.90;;;;;;4872081;29;20526;-86
2021/08/25 06:00:01;;;;;;;6.57;4.43;;;12.00;99.90;;;;;;4872396;29;20045;-87
2021/08/25 06:02:26;;;;;;;7.35;4.90;;;12.10;99.90;;;;;;4872176;29;20040;-87
2021/08/25 06:04:52;;;;;;;8.00;5.75;;;12.10;99.90;;;;;;4871959;29;20037;-86
2021/08/25 06:07:18;;;;;;;7.85;5.40;;;12.20;99.90;;;;;;4872125;29;20037;-88
2021/08/25 06:09:43;;;;;;;8.70;5.95;;;12.30;99.90;;;;;;4871539;29;20033;-87
2021/08/25 06:12:09;;;;;;;8.05;6.07;;;12.40;99.90;;;;;;4872234;29;20033;-87
2021/08/25 06:14:35;;;;;;;6.43;4.82;;;12.50;99.90;;;;;;4871695;29;20154;-87
2021/08/25 06:17:01;;;;;;;8.38;6.30;;;12.60;99.90;;;;;;4875265;29;20029;-87
2021/08/25 06:19:29;;;;;;;9.80;6.55;;;12.70;99.90;;;;;;4871697;29;20045;-88
2021/08/25 06:21:54;;;;;;;7.88;5.18;;;12.80;99.90;;;;;;4856485;29;20070;-87
2021/08/25 06:24:20;;;;;;;7.00;4.97;;;12.90;99.90;;;;;;4872108;29;20044;-86
2021/08/25 06:26:45;;;;;;;8.60;5.70;;;13.10;99.90;;;;;;4910379;29;20111;-87
2021/08/25 06:29:11;;;;;;;7.47;5.68;;;13.20;99.90;;;;;;4944808;29;20040;-87
2021/08/25 06:31:37;;;;;;;8.35;5.80;;;13.40;99.90;;;;;;4945222;29;20028;-87
2021/08/25 06:34:02;;;;;;;7.50;5.45;;;13.50;99.90;;;;;;4944683;29;20103;-86
2021/08/25 06:36:29;;;;;;;5.00;2.97;;;13.70;99.90;;;;;;4944946;29;20036;-88
2021/08/25 06:38:54;;;;;;;7.15;5.60;;;13.80;99.90;;;;;;4944719;29;20051;-87
2021/08/25 06:41:20;;;;;;;8.27;5.85;;;14.00;99.90;;;;;;4944700;29;20036;-88
2021/08/25 06:43:46;;;;;;;6.47;3.90;;;14.10;99.90;;;;;;4944752;29;20040;-87
2021/08/25 06:46:32;;;;;;;9.63;5.10;;;14.20;99.90;;;;;;4944642;29;20031;-87
2021/08/25 06:48:57;;;;;;;8.05;6.03;;;14.40;99.90;;;;;;4889731;29;20045;-87
2021/08/25 06:51:23;;;;;;;13.20;8.43;;;14.50;99.90;;;;;;4874447;29;20125;-87
2021/08/25 06:53:49;;;;;;;8.35;6.07;;;14.50;99.90;;;;;;4874235;29;20101;-87
2021/08/25 06:56:15;;;;;;;7.07;5.50;;;14.70;99.90;;;;;;4888820;29;20040;-87
2021/08/25 06:58:40;;;;;;;9.70;6.90;;;14.90;99.90;;;;;;4874121;29;20069;-88
2021/08/25 07:01:06;;;;;;;8.98;6.55;;;14.90;99.90;;;;;;4874164;29;20068;-89
2021/08/25 07:03:32;;;;;;;12.15;8.10;;;15.00;99.90;;;;;;4874286;29;20032;-88
2021/08/25 07:05:57;;;;;;;8.65;6.63;;;15.00;99.90;;;;;;4874013;29;20403;-89
2021/08/25 07:08:23;;;;;;;9.27;6.32;;;15.20;99.90;;;;;;4873666;29;20056;-89
2021/08/25 07:10:49;;;;;;;8.65;6.07;;;15.20;99.90;;;;;;4874249;29;20144;-88
2021/08/25 07:13:14;;;;;;;9.98;6.22;;;15.20;99.90;;;;;;4874195;29;20117;-89
2021/08/25 07:15:40;;;;;;;11.20;5.43;;;15.50;99.90;;;;;;4874070;29;20036;-88
2021/08/25 07:18:06;;;;;;;6.90;4.45;;;15.90;99.90;;;;;;4871032;29;20132;-90
2021/08/25 07:20:31;;;;;;;7.07;3.70;;;16.20;99.90;;;;;;4870308;29;20068;-90
2021/08/25 07:22:57;;;;;;;9.00;6.22;;;16.10;99.90;;;;;;4871258;29;20040;-89
2021/08/25 07:25:23;;;;;;;8.57;5.35;;;15.80;99.90;;;;;;4883038;29;20043;-89
2021/08/25 07:27:48;;;;;;;8.88;5.95;;;15.90;99.90;;;;;;4927959;29;20056;-89
2021/08/25 07:30:14;;;;;;;8.65;6.45;;;16.00;99.90;;;;;;4928140;29;20024;-88
2021/08/25 07:32:40;;;;;;;7.75;5.25;;;15.80;99.90;;;;;;4928155;29;20040;-88
2021/08/25 07:35:11;;;;;;;8.18;5.13;;;16.10;99.90;;;;;;4927600;29;20059;-88
2021/08/25 07:37:37;;;;;;;7.43;5.50;;;16.20;99.90;;;;;;4927351;29;20064;-89
2021/08/25 07:40:05;;;;;;;6.55;4.05;;;16.30;99.90;;;;;;4927589;29;20095;-89
2021/08/25 07:42:30;;;;;;;5.40;3.97;;;16.30;99.90;;;;;;4927779;29;20044;-88
2021/08/25 07:44:56;;;;;;;6.22;4.47;;;16.60;99.90;;;;;;4927832;29;20036;-89
2021/08/25 07:47:22;;;;;;;7.25;4.82;;;16.80;99.90;;;;;;4927728;29;20493;-88
2021/08/25 07:49:48;;;;;;;5.25;3.03;;;16.80;99.90;;;;;;4927754;29;20052;-87
2021/08/25 07:52:13;;;;;;;5.43;3.95;;;17.10;99.90;;;;;;4927860;29;20062;-89
2021/08/25 07:54:39;;;;;;;4.65;3.17;;;17.20;99.90;;;;;;4927982;29;20051;-87
2021/08/25 07:57:04;;;;;;;5.38;4.10;;;17.60;99.90;;;;;;4949632;29;20559;-89
2021/08/25 07:59:30;;;;;;;7.80;4.25;;;17.40;99.90;;;;;;4949826;29;20066;-88
2021/08/25 08:01:56;;;;;;;5.35;3.25;;;17.60;99.90;;;;;;4950003;29;20038;-88
2021/08/25 08:04:21;;;;;;;4.35;2.58;;;18.00;99.90;;;;;;4950147;29;20065;-88
2021/08/25 08:06:47;;;;;;;8.13;5.18;;;17.90;99.90;;;;;;4950381;29;20034;-88
2021/08/25 08:09:13;;;;;;;5.38;3.75;;;17.60;99.90;;;;;;4950313;29;20031;-87
2021/08/25 08:11:39;;;;;;;6.10;4.55;;;17.90;99.90;;;;;;4950376;29;20103;-87
2021/08/25 08:14:06;;;;;;;6.18;3.90;;;18.00;99.90;;;;;;4949850;29;20043;-87
2021/08/25 08:16:34;;;;;;;5.28;3.17;;;18.20;99.90;;;;;;4947115;29;20039;-88
2021/08/25 08:21:45;;;;;;;8.98;4.38;;;18.60;99.90;;;;;;4946523;29;20091;-88
2021/08/25 08:24:11;;;;;;;6.75;5.20;;;18.30;99.90;;;;;;4946748;29;20054;-87
2021/08/25 08:26:37;;;;;;;6.03;3.95;;;18.20;99.90;;;;;;4946471;29;20039;-88
2021/08/25 08:29:03;;;;;;;5.15;4.30;;;18.50;99.90;;;;;;4946239;29;20059;-87
2021/08/25 08:31:29;;;;;;;6.07;3.55;;;18.70;99.90;;;;;;4947677;29;20041;-87
2021/08/25 08:33:55;;;;;;;6.88;3.92;;;19.00;99.90;;;;;;4934507;29;20098;-90
2021/08/25 08:36:21;;;;;;;7.22;3.60;;;18.80;99.90;;;;;;4950257;29;20059;-88
2021/08/25 08:38:47;;;;;;;5.57;4.05;;;18.80;99.90;;;;;;4934517;29;20039;-89
2021/08/25 08:41:12;;;;;;;3.97;2.72;;;18.90;99.90;;;;;;4934282;29;20066;-88
2021/08/25 08:43:49;;;;;;;5.97;2.50;;;18.80;99.90;;;;;;4934424;29;20032;-87
2021/08/25 08:46:55;;;;;;;5.47;3.00;;;18.90;99.90;;;;;;4950187;29;20060;-87
2021/08/25 08:49:21;;;;;;;4.18;1.80;;;18.90;99.90;;;;;;4875896;29;20049;-89
2021/08/25 08:51:48;;;;;;;4.82;1.60;;;19.00;99.90;;;;;;4890938;29;20112;-88
2021/08/25 08:54:15;;;;;;;3.15;1.23;;;19.20;99.90;;;;;;4891180;29;20113;-89
2021/08/25 08:56:40;;;;;;;3.78;1.38;;;19.40;99.90;;;;;;4898156;29;20052;-88
2021/08/25 08:59:06;;;;;;;4.20;2.00;;;19.40;99.90;;;;;;4909589;29;20048;-88
2021/08/25 09:01:33;;;;;;;3.58;1.30;;;19.50;99.90;;;;;;4893823;29;20052;-88
2021/08/25 09:04:00;;;;;;;3.70;1.27;;;19.70;99.90;;;;;;4909605;29;20107;-88
2021/08/25 09:06:45;;;;;;;3.17;1.00;;;19.90;99.90;;;;;;4909487;29;20525;-89
2021/08/25 09:09:11;;;;;;;4.90;2.10;;;19.90;99.90;;;;;;4909686;29;20521;-89
2021/08/25 09:11:50;;;;;;;5.90;1.67;;;19.80;99.90;;;;;;4909564;29;20040;-88
2021/08/25 09:14:17;;;;;;;2.75;0.80;;;19.80;99.90;;;;;;4909276;29;20084;-89
2021/08/25 09:16:42;;;;;;;3.50;1.52;;;20.10;99.90;;;;;;4909204;29;20077;-88
2021/08/25 09:19:10;;;;;;;3.88;2.00;;;19.80;99.90;;;;;;4893618;29;20044;-88
2021/08/25 09:21:45;;;;;;;4.88;1.70;;;20.00;99.90;;;;;;4909337;29;20068;-89
2021/08/25 09:24:13;;;;;;;3.45;1.10;;;19.80;99.90;;;;;;4893799;29;20044;-88
2021/08/25 09:27:15;;;;;;;3.25;1.08;;;19.80;99.90;;;;;;4929518;29;20040;-89
2021/08/25 09:29:43;;;;;;;4.57;1.52;;;20.00;99.90;;;;;;4948307;29;20023;-87
2021/08/25 09:32:23;;;;;;;3.53;0.90;;;20.10;99.90;;;;;;4948296;29;20036;-88
2021/08/25 09:35:02;;;;;;;3.63;1.27;;;20.30;99.90;;;;;;4948028;29;20044;-90
2021/08/25 09:37:30;;;;;;;4.60;0.90;;;19.90;99.90;;;;;;4948086;29;20032;-90
2021/08/25 09:39:58;;;;;;;2.47;0.73;;;20.10;99.90;;;;;;4947994;29;20095;-87
2021/08/25 09:42:24;;;;;;;2.53;0.60;;;20.10;99.90;;;;;;4947850;29;20074;-88
2021/08/25 09:45:06;;;;;;;3.13;0.70;;;20.20;99.90;;;;;;4947461;29;20027;-89
2021/08/25 09:47:46;;;;;;;2.70;0.70;;;20.40;99.90;;;;;;4947999;29;20036;-88
2021/08/25 09:50:15;;;;;;;2.47;0.82;;;20.40;99.90;;;;;;4914143;29;1008393;-87
2021/08/25 09:52:42;;;;;;;2.83;0.63;;;20.60;99.90;;;;;;4950031;29;20036;-89
2021/08/25 09:55:08;;;;;;;1.80;0.70;;;20.70;99.90;;;;;;4948995;29;20046;-87
2021/08/25 09:57:38;;;;;;;5.22;1.50;;;21.00;99.90;;;;;;4963584;29;20035;-89
2021/08/25 10:00:05;;;;;;;1.88;0.70;;;20.80;99.90;;;;;;4968256;29;20035;-89
2021/08/25 10:02:42;;;;;;;2.05;0.65;;;20.50;99.90;;;;;;4968066;29;20028;-89
2021/08/25 10:05:27;;;;;;;2.42;0.93;;;20.90;99.90;;;;;;4952251;29;20042;-88
2021/08/25 10:07:54;;;;;;;2.15;0.70;;;20.70;99.90;;;;;;4951966;29;20050;-88
2021/08/25 10:10:19;;;;;;;2.25;0.60;;;20.50;99.90;;;;;;4952128;29;20023;-89
2021/08/25 10:12:51;;;;;;;2.17;0.60;;;20.70;99.90;;;;;;4951792;29;20063;-88
2021/08/25 10:15:39;;;;;;;4.00;1.15;;;21.10;99.90;;;;;;4967945;29;20038;-89
2021/08/25 10:18:26;;;;;;;2.50;0.60;;;20.80;99.90;;;;;;4952350;29;20039;-88
2021/08/25 10:20:54;;;;;;;2.08;0.80;;;20.90;99.90;;;;;;4948519;29;20087;-89
2021/08/25 10:23:22;;;;;;;2.72;0.75;;;21.10;99.90;;;;;;4948669;29;20035;-88
2021/08/25 10:26:07;;;;;;;2.20;0.60;;;21.40;99.90;;;;;;4948522;29;20039;-88
2021/08/25 10:29:10;;;;;;;2.05;0.50;;;21.50;99.90;;;;;;4948157;29;20032;-88
2021/08/25 10:31:56;;;;;;;1.77;0.63;;;21.80;99.90;;;;;;4948528;29;20472;-89
2021/08/25 10:34:27;;;;;;;1.83;0.50;;;21.60;99.90;;;;;;4932451;29;20044;-90
2021/08/25 10:37:11;;;;;;;5.85;1.77;;;22.00;99.90;;;;;;4932187;29;20031;-88
2021/08/25 10:39:39;;;;;;;3.60;0.70;;;21.30;99.90;;;;;;4932232;29;20135;-88
2021/08/25 10:42:06;;;;;;;4.32;1.23;;;21.30;99.90;;;;;;4948206;29;20046;-90
2021/08/25 10:44:40;;;;;;;2.95;0.65;;;21.20;99.90;;;;;;4948139;29;20045;-88
2021/08/25 10:47:17;;;;;;;2.63;0.75;;;21.40;99.90;;;;;;4931927;29;20040;-88
2021/08/25 10:49:45;;;;;;;2.00;0.93;;;21.30;99.90;;;;;;4947570;29;20047;-88
2021/08/25 10:52:13;;;;;;;2.72;0.70;;;22.00;99.90;;;;;;4932198;29;20448;-89
2021/08/25 10:54:40;;;;;;;2.47;0.60;;;22.10;99.90;;;;;;4948087;29;20095;-89
2021/08/25 10:57:12;;;;;;;2.05;0.60;;;22.40;99.90;;;;;;4942891;29;20037;-88
2021/08/25 10:59:38;;;;;;;2.50;0.73;;;22.20;99.90;;;;;;4966941;29;20488;-89
2021/08/25 11:02:04;;;;;;;3.35;0.65;;;22.00;99.90;;;;;;4950824;29;20047;-89
2021/08/25 11:04:30;;;;;;;1.45;0.40;;;22.10;99.90;;;;;;4966800;29;20019;-91
2021/08/25 11:07:05;;;;;;;2.50;0.80;;;22.60;99.90;;;;;;4966984;29;20039;-89
2021/08/25 11:09:48;;;;;;;3.70;0.95;;;22.20;99.90;;;;;;4966709;29;20055;-91
2021/08/25 11:12:19;;;;;;;2.88;0.82;;;21.70;99.90;;;;;;4966689;29;20031;-88
2021/08/25 11:14:49;;;;;;;2.10;0.70;;;21.70;99.90;;;;;;4966473;29;20043;-87
2021/08/25 11:17:19;;;;;;;4.07;1.10;;;22.00;99.90;;;;;;4957908;29;20119;-88
2021/08/25 11:19:47;;;;;;;3.47;0.85;;;21.90;99.90;;;;;;4947489;29;20135;-91
2021/08/25 11:22:32;;;;;;;1.42;0.50;;;22.30;99.90;;;;;;4947298;29;20119;-89
2021/08/25 11:25:10;;;;;;;2.45;0.70;;;22.50;99.90;;;;;;4931545;29;20047;-86
2021/08/25 11:27:37;;;;;;;3.25;0.90;;;22.70;99.90;;;;;;4947046;29;20027;-88
2021/08/25 11:30:24;;;;;;;4.20;0.90;;;22.20;99.90;;;;;;4947190;29;20035;-89
2021/08/25 11:32:55;;;;;;;2.72;0.93;;;22.50;99.90;;;;;;4931388;29;20039;-87
2021/08/25 11:35:27;;;;;;;2.53;0.75;;;22.10;99.90;;;;;;4947180;29;20054;-88
2021/08/25 11:37:58;;;;;;;3.63;0.90;;;22.00;99.90;;;;;;4947364;29;20504;-90
2021/08/25 11:40:25;;;;;;;3.53;1.02;;;22.20;99.90;;;;;;4931220;29;20185;-88
2021/08/25 11:42:51;;;;;;;3.50;0.82;;;22.40;99.90;;;;;;4947251;29;20031;-90
2021/08/25 11:45:19;;;;;;;2.10;0.63;;;22.80;99.90;;;;;;4946912;29;20043;-91
2021/08/25 11:47:49;;;;;;;2.20;0.60;;;23.20;99.90;;;;;;4946959;29;20038;-90
2021/08/25 11:50:16;;;;;;;1.85;0.60;;;23.50;99.90;;;;;;4948205;29;20052;-90
2021/08/25 11:52:42;;;;;;;2.85;0.70;;;23.90;99.90;;;;;;4946983;29;20032;-89
2021/08/25 11:55:09;;;;;;;3.17;0.63;;;23.40;99.90;;;;;;4947062;29;20126;-89
2021/08/25 11:57:41;;;;;;;2.75;0.82;;;23.00;99.90;;;;;;4961502;29;20023;-86
2021/08/25 12:00:08;;;;;;;3.00;0.60;;;22.90;99.90;;;;;;4966298;29;20464;-88
2021/08/25 12:02:53;;;;;;;2.20;0.80;;;22.50;99.90;;;;;;4966144;29;20035;-90
2021/08/25 12:05:21;;;;;;;1.73;0.70;;;22.30;99.90;;;;;;4966297;29;20031;-89
2021/08/25 12:07:59;;;;;;;2.72;0.80;;;22.70;99.90;;;;;;4965675;29;20054;-87
2021/08/25 12:10:26;;;;;;;1.75;0.63;;;22.40;99.90;;;;;;4950074;29;20035;-87
2021/08/25 12:12:52;;;;;;;2.97;0.68;;;22.50;99.90;;;;;;4949940;29;20042;-88
2021/08/25 12:15:18;;;;;;;1.65;0.50;;;22.30;99.90;;;;;;4949858;29;20039;-89
2021/08/25 12:18:02;;;;;;;2.53;0.70;;;22.70;99.90;;;;;;4934551;29;20032;-88
2021/08/25 12:20:38;;;;;;;2.88;0.73;;;22.70;99.90;;;;;;4927768;29;20091;-87
2021/08/25 12:23:05;;;;;;;2.92;0.80;;;22.90;99.90;;;;;;4927590;29;20032;-89
2021/08/25 12:25:45;;;;;;;3.28;0.63;;;22.90;99.90;;;;;;4927762;29;20042;-88
2021/08/25 12:28:16;;;;;;;2.28;0.80;;;23.00;99.90;;;;;;4927629;29;20036;-89
2021/08/25 12:30:43;;;;;;;2.08;0.70;;;22.40;99.90;;;;;;4928871;29;20033;-90
2021/08/25 12:33:15;;;;;;;2.33;0.88;;;22.30;99.90;;;;;;4927518;29;20036;-87
2021/08/25 12:35:40;;;;;;;2.00;0.65;;;22.60;99.90;;;;;;4927517;29;20044;-86
2021/08/25 12:38:07;;;;;;;2.00;0.50;;;23.10;99.90;;;;;;4927472;29;20035;-87
2021/08/25 12:40:33;;;;;;;2.95;0.88;;;22.90;99.90;;;;;;4927461;29;20043;-88
2021/08/25 12:42:59;;;;;;;2.35;0.95;;;22.40;99.90;;;;;;4927525;29;20036;-87
2021/08/25 12:45:26;;;;;;;3.25;0.70;;;22.50;99.90;;;;;;4927492;29;20420;-86
2021/08/25 12:47:53;;;;;;;2.70;0.80;;;22.90;99.90;;;;;;4927542;29;20035;-86
2021/08/25 12:50:22;;;;;;;2.58;0.80;;;22.60;99.90;;;;;;4927527;29;20056;-87
2021/08/25 12:52:48;;;;;;;3.05;0.90;;;22.50;99.90;;;;;;4930650;29;20032;-88
2021/08/25 12:55:14;;;;;;;3.13;1.00;;;22.20;99.90;;;;;;4927270;29;20104;-87
2021/08/25 12:57:40;;;;;;;3.10;0.80;;;22.30;99.90;;;;;;4958222;29;20038;-87